createdAt,value
2023-02-28T00:00:33.389Z,32.08
2023-02-28T00:03:00.538Z,25.83
2023-02-28T00:05:28.934Z,23.70
2023-02-28T00:07:56.174Z,19.62
2023-02-28T00:10:28.381Z,20.65
2023-02-28T00:12:58.223Z,21.65
2023-02-28T00:15:25.469Z,14.30
2023-02-28T00:17:52.593Z,19.65
2023-02-28T00:20:20.214Z,21.62
2023-02-28T00:22:49.448Z,21.17
2023-02-28T00:25:18.741Z,22.77
2023-02-28T00:27:46.099Z,15.00
2023-02-28T00:30:20.840Z,20.58
2023-02-28T00:32:47.696Z,16.33
2023-02-28T00:37:41.560Z,17.90
2023-02-28T00:40:09.268Z,19.90
2023-02-28T00:42:36.334Z,15.45
2023-02-28T00:45:05.791Z,14.80
2023-02-28T00:47:33.553Z,19.45
2023-02-28T00:50:01.124Z,16.67
2023-02-28T00:52:28.175Z,18.62
2023-02-28T00:54:55.551Z,19.45
2023-02-28T00:57:22.545Z,16.52
2023-02-28T00:59:49.451Z,17.50
2023-02-28T01:02:16.385Z,19.37
2023-02-28T01:04:43.336Z,21.40
2023-02-28T01:07:10.257Z,18.15
2023-02-28T01:12:04.038Z,17.35
2023-02-28T01:14:31.004Z,20.88
2023-02-28T01:16:57.886Z,19.70
2023-02-28T01:21:51.416Z,19.87
2023-02-28T01:26:44.934Z,18.55
2023-02-28T01:31:38.707Z,17.83
2023-02-28T01:34:05.580Z,16.45
2023-02-28T01:38:59.146Z,17.15
2023-02-28T01:44:16.133Z,16.60
2023-02-28T01:46:43.979Z,15.77
2023-02-28T01:49:14.823Z,18.30
2023-02-28T01:51:51.842Z,17.15
2023-02-28T01:54:31.185Z,19.90
2023-02-28T01:57:08.902Z,17.67
2023-02-28T01:59:47.169Z,18.95
2023-02-28T02:02:15.210Z,18.60
2023-02-28T02:04:51.124Z,16.20
2023-02-28T02:07:18.382Z,16.10
2023-02-28T02:09:45.257Z,16.08
2023-02-28T02:15:09.045Z,20.17
2023-02-28T02:17:42.277Z,14.95
2023-02-28T02:20:30.660Z,18.05
2023-02-28T02:23:22.015Z,16.85
2023-02-28T02:25:56.289Z,12.15
2023-02-28T02:29:04.733Z,14.32
2023-02-28T02:31:53.299Z,18.08
2023-02-28T02:34:44.628Z,17.73
2023-02-28T02:37:30.164Z,17.85
2023-02-28T02:40:02.995Z,16.67
2023-02-28T02:42:37.200Z,12.77
2023-02-28T02:45:18.697Z,14.82
2023-02-28T02:47:46.524Z,18.02
2023-02-28T02:50:19.156Z,14.90
2023-02-28T02:52:49.914Z,20.27
2023-02-28T02:55:18.550Z,19.98
2023-02-28T02:57:52.438Z,15.40
2023-02-28T03:00:21.874Z,16.92
2023-02-28T03:02:49.026Z,17.83
2023-02-28T03:05:27.232Z,16.33
2023-02-28T03:07:54.145Z,16.27
2023-02-28T03:13:04.467Z,16.20
2023-02-28T03:15:40.728Z,14.85
2023-02-28T03:18:12.975Z,19.15
2023-02-28T03:20:50.208Z,16.85
2023-02-28T03:23:35.961Z,16.15
2023-02-28T03:26:08.936Z,14.77
2023-02-28T03:28:39.033Z,16.87
2023-02-28T03:31:17.110Z,19.90
2023-02-28T03:34:07.840Z,18.17
2023-02-28T03:36:44.968Z,16.00
2023-02-28T03:39:36.951Z,18.42
2023-02-28T03:42:10.127Z,15.80
2023-02-28T03:44:44.308Z,20.50
2023-02-28T03:47:18.929Z,20.70
2023-02-28T03:49:55.798Z,17.55
2023-02-28T03:52:24.910Z,23.33
2023-02-28T03:54:54.033Z,19.42
2023-02-28T03:57:36.012Z,17.35
2023-02-28T04:00:14.656Z,17.02
2023-02-28T04:02:41.682Z,18.58
2023-02-28T04:05:09.381Z,19.40
2023-02-28T04:07:36.331Z,18.08
2023-02-28T04:10:03.842Z,20.02
2023-02-28T04:12:30.910Z,19.05
2023-02-28T04:14:57.794Z,20.52
2023-02-28T04:19:51.412Z,18.73
2023-02-28T04:24:46.090Z,18.33
2023-02-28T04:27:12.954Z,17.15
2023-02-28T04:32:06.633Z,17.08
2023-02-28T04:34:34.141Z,19.00
2023-02-28T04:37:16.997Z,17.02
2023-02-28T04:39:44.867Z,21.30
2023-02-28T04:42:12.838Z,18.02
2023-02-28T04:44:39.715Z,18.60
2023-02-28T04:49:33.573Z,18.12
2023-02-28T04:52:00.430Z,17.00
2023-02-28T04:56:54.021Z,19.25
2023-02-28T05:01:49.332Z,23.83
2023-02-28T05:04:16.534Z,40.65
2023-02-28T05:06:43.541Z,25.12
2023-02-28T05:09:12.756Z,32.70
2023-02-28T05:11:40.682Z,16.85
2023-02-28T05:14:15.456Z,41.83
2023-02-28T05:16:42.524Z,35.80
2023-02-28T05:19:09.610Z,47.72
2023-02-28T05:21:38.416Z,17.35
2023-02-28T05:24:11.876Z,15.18
2023-02-28T05:26:41.260Z,16.25
2023-02-28T05:29:08.627Z,13.35
2023-02-28T05:31:35.592Z,19.02
2023-02-28T05:34:02.485Z,19.40
2023-02-28T05:38:56.029Z,18.12
2023-02-28T05:43:50.002Z,19.87
2023-02-28T05:46:17.130Z,19.67
2023-02-28T05:48:48.171Z,19.15
2023-02-28T05:51:15.152Z,21.20
2023-02-28T05:53:41.979Z,22.62
2023-02-28T05:58:35.899Z,18.48
2023-02-28T06:01:41.903Z,24.77
2023-02-28T06:04:19.369Z,16.65
2023-02-28T06:06:52.888Z,19.23
2023-02-28T06:09:20.376Z,19.52
2023-02-28T06:11:47.399Z,17.95
2023-02-28T06:14:17.897Z,23.08
2023-02-28T06:16:44.863Z,16.23
2023-02-28T06:19:12.121Z,18.80
2023-02-28T06:21:38.997Z,15.48
2023-02-28T06:26:33.124Z,19.20
2023-02-28T06:28:59.993Z,16.23
2023-02-28T06:33:54.168Z,17.67
2023-02-28T06:38:52.555Z,17.10
2023-02-28T06:41:19.512Z,19.30
2023-02-28T06:43:46.366Z,16.40
2023-02-28T06:48:42.163Z,17.52
2023-02-28T06:51:15.296Z,21.40
2023-02-28T06:53:42.417Z,21.35
2023-02-28T06:56:11.688Z,17.33
2023-02-28T06:58:39.032Z,19.95
2023-02-28T07:01:06.334Z,17.23
2023-02-28T07:03:34.508Z,17.62
2023-02-28T07:06:02.177Z,25.37
2023-02-28T07:08:32.281Z,20.20
2023-02-28T07:10:59.500Z,20.42
2023-02-28T07:13:26.686Z,20.80
2023-02-28T07:16:01.164Z,18.92
2023-02-28T07:18:28.536Z,15.10
2023-02-28T07:20:55.490Z,13.88
2023-02-28T07:23:22.948Z,14.25
2023-02-28T07:25:51.372Z,12.95
2023-02-28T07:28:18.400Z,11.63
2023-02-28T07:30:45.328Z,12.52
2023-02-28T07:33:12.205Z,16.87
2023-02-28T07:38:06.293Z,14.68
2023-02-28T07:40:33.217Z,15.02
2023-02-28T07:43:02.833Z,15.05
2023-02-28T07:45:30.016Z,12.20
2023-02-28T07:47:57.358Z,13.50
2023-02-28T07:50:26.986Z,15.73
2023-02-28T07:52:53.974Z,17.40
2023-02-28T07:55:20.870Z,12.88
2023-02-28T07:57:47.744Z,15.05
2023-02-28T08:00:15.043Z,10.77
2023-02-28T08:02:42.115Z,11.75
2023-02-28T08:05:09.418Z,13.35
2023-02-28T08:07:36.429Z,16.70
2023-02-28T08:10:03.949Z,12.93
2023-02-28T08:12:30.813Z,13.18
2023-02-28T08:14:57.636Z,14.82
2023-02-28T08:19:51.398Z,11.90
2023-02-28T08:22:18.250Z,15.30
2023-02-28T08:27:12.117Z,12.68
2023-02-28T08:29:39.587Z,14.05
2023-02-28T08:32:14.566Z,12.80
2023-02-28T08:34:48.161Z,14.30
2023-02-28T08:37:15.132Z,15.88
2023-02-28T08:39:42.075Z,14.50
2023-02-28T08:42:08.946Z,12.75
2023-02-28T08:47:02.551Z,9.50
2023-02-28T08:49:29.836Z,14.52
2023-02-28T08:51:58.279Z,12.37
2023-02-28T08:54:25.641Z,16.33
2023-02-28T08:56:53.192Z,8.65
2023-02-28T08:59:20.073Z,12.60
2023-02-28T09:01:46.991Z,8.63
2023-02-28T09:04:17.101Z,7.10
2023-02-28T09:06:46.789Z,11.35
2023-02-28T09:09:13.692Z,12.68
2023-02-28T09:11:40.540Z,13.35
2023-02-28T09:16:35.295Z,13.98
2023-02-28T09:19:02.774Z,12.68
2023-02-28T09:21:30.101Z,12.07
2023-02-28T09:23:57.176Z,9.70
2023-02-28T09:26:26.600Z,12.70
2023-02-28T09:28:54.207Z,12.63
2023-02-28T09:31:25.935Z,10.05
2023-02-28T09:33:55.213Z,9.18
2023-02-28T09:36:24.969Z,12.57
2023-02-28T09:38:54.296Z,13.07
2023-02-28T09:41:26.644Z,10.27
2023-02-28T09:43:57.061Z,13.18
2023-02-28T09:46:33.445Z,9.93
2023-02-28T09:49:04.045Z,11.48
2023-02-28T09:51:56.437Z,13.00
2023-02-28T09:54:24.925Z,10.85
2023-02-28T09:56:57.001Z,12.27
2023-02-28T09:59:38.003Z,10.98
2023-02-28T10:02:46.337Z,12.18
2023-02-28T10:05:15.921Z,11.15
2023-02-28T10:08:11.852Z,11.35
2023-02-28T10:10:44.980Z,10.65
2023-02-28T10:13:23.279Z,11.52
2023-02-28T10:15:53.941Z,10.68
2023-02-28T10:18:27.931Z,10.32
2023-02-28T10:20:56.899Z,15.02
2023-02-28T10:23:33.872Z,13.98
2023-02-28T10:26:07.232Z,12.93
2023-02-28T10:28:34.149Z,14.50
2023-02-28T10:31:01.318Z,12.57
2023-02-28T10:33:32.150Z,13.48
2023-02-28T10:35:59.776Z,15.43
2023-02-28T10:38:38.332Z,12.88
2023-02-28T10:41:12.336Z,14.80
2023-02-28T10:43:41.048Z,15.27
2023-02-28T10:46:10.996Z,14.55
2023-02-28T10:48:51.795Z,13.27
2023-02-28T10:51:20.326Z,12.27
2023-02-28T10:54:00.671Z,11.05
2023-02-28T10:56:28.833Z,12.32
2023-02-28T10:59:03.314Z,16.15
2023-02-28T11:01:33.469Z,12.90
2023-02-28T11:04:00.602Z,14.85
2023-02-28T11:06:32.882Z,16.17
2023-02-28T11:09:02.104Z,13.82
2023-02-28T11:11:30.930Z,13.88
2023-02-28T11:14:05.261Z,14.98
2023-02-28T11:16:37.240Z,13.73
2023-02-28T11:19:05.823Z,12.90
2023-02-28T11:21:35.988Z,18.48
2023-02-28T11:24:06.476Z,15.27
2023-02-28T11:26:51.396Z,17.05
2023-02-28T11:29:30.641Z,14.15
2023-02-28T11:32:08.566Z,14.00
2023-02-28T11:34:36.926Z,10.43
2023-02-28T11:37:07.683Z,15.43
2023-02-28T11:39:34.619Z,12.40
2023-02-28T11:42:19.923Z,12.60
2023-02-28T11:44:47.301Z,15.00
2023-02-28T11:47:30.119Z,13.45
2023-02-28T11:50:05.946Z,11.00
2023-02-28T11:52:56.289Z,9.80
2023-02-28T11:56:08.937Z,13.68
2023-02-28T11:58:46.687Z,11.45
2023-02-28T12:01:36.657Z,11.52
2023-02-28T12:04:27.188Z,10.88
2023-02-28T12:07:29.201Z,12.57
2023-02-28T12:10:06.444Z,12.50
2023-02-28T12:12:39.726Z,15.27
2023-02-28T12:15:23.525Z,15.35
2023-02-28T12:18:22.691Z,13.62
2023-02-28T12:21:04.067Z,11.73
2023-02-28T12:24:12.942Z,14.75
2023-02-28T12:26:41.638Z,16.62
2023-02-28T12:29:18.300Z,14.18
2023-02-28T12:31:50.791Z,12.35
2023-02-28T12:34:24.256Z,12.45
2023-02-28T12:36:53.495Z,13.82
2023-02-28T12:39:36.579Z,17.25
2023-02-28T12:42:15.576Z,14.52
2023-02-28T12:44:47.428Z,11.75
2023-02-28T12:47:17.733Z,12.35
2023-02-28T12:49:51.597Z,14.02
2023-02-28T12:52:41.029Z,15.40
2023-02-28T12:55:15.540Z,19.15
2023-02-28T12:57:48.335Z,13.80
2023-02-28T13:00:20.686Z,15.18
2023-02-28T13:03:00.824Z,15.48
2023-02-28T13:05:43.619Z,16.45
2023-02-28T13:09:13.661Z,12.52
2023-02-28T13:11:42.263Z,19.27
2023-02-28T13:14:20.874Z,16.67
2023-02-28T13:17:16.107Z,15.82
2023-02-28T13:19:59.094Z,14.45
2023-02-28T13:22:53.854Z,14.82
2023-02-28T13:25:23.799Z,15.00
2023-02-28T13:27:57.413Z,20.62
2023-02-28T13:30:59.781Z,14.45
2023-02-28T13:33:35.116Z,13.07
2023-02-28T13:36:08.023Z,13.85
2023-02-28T13:38:39.823Z,14.23
2023-02-28T13:41:31.944Z,17.10
2023-02-28T13:44:04.720Z,16.02
2023-02-28T13:46:34.735Z,10.00
2023-02-28T13:49:26.675Z,12.30
2023-02-28T13:51:56.732Z,16.05
2023-02-28T13:54:57.112Z,14.82
2023-02-28T13:57:42.201Z,15.98
2023-02-28T14:00:33.892Z,11.23
2023-02-28T14:03:26.161Z,13.50
2023-02-28T14:06:19.535Z,13.20
2023-02-28T14:09:24.526Z,15.80
2023-02-28T14:11:54.531Z,11.77
2023-02-28T14:14:36.718Z,9.00
2023-02-28T14:17:10.777Z,11.40
2023-02-28T14:19:39.531Z,13.60
2023-02-28T14:22:45.680Z,12.60
2023-02-28T14:25:35.812Z,25.10
2023-02-28T14:28:05.748Z,12.07
2023-02-28T14:30:44.819Z,13.62
2023-02-28T14:33:48.348Z,18.67
2023-02-28T14:36:23.057Z,13.18
2023-02-28T14:38:56.380Z,12.77
2023-02-28T14:41:39.463Z,13.43
2023-02-28T14:44:21.881Z,14.93
2023-02-28T14:46:55.156Z,16.60
2023-02-28T14:49:31.334Z,15.45
2023-02-28T14:52:18.708Z,19.10
2023-02-28T14:54:46.090Z,17.12
2023-02-28T14:57:28.075Z,15.13
2023-02-28T15:00:05.290Z,16.33
2023-02-28T15:02:35.943Z,17.67
2023-02-28T15:05:21.768Z,18.35
2023-02-28T15:07:49.905Z,16.80
2023-02-28T15:10:28.333Z,32.00
2023-02-28T15:13:00.346Z,20.50
2023-02-28T15:16:01.546Z,22.10
2023-02-28T15:18:38.362Z,22.75
2023-02-28T15:21:08.677Z,19.08
2023-02-28T15:23:37.590Z,22.25
2023-02-28T15:26:05.407Z,21.35
2023-02-28T15:28:32.436Z,16.42
2023-02-28T15:31:02.528Z,19.95
2023-02-28T15:33:31.526Z,25.48
2023-02-28T15:36:30.379Z,25.00
2023-02-28T15:38:59.576Z,21.70
2023-02-28T15:41:41.282Z,19.77
2023-02-28T15:44:37.981Z,20.35
2023-02-28T15:47:18.589Z,19.30
2023-02-28T15:49:49.755Z,18.40
2023-02-28T15:52:44.172Z,18.90
2023-02-28T15:55:20.304Z,25.65
2023-02-28T15:57:49.177Z,26.17
2023-02-28T16:00:20.337Z,59.70
2023-02-28T16:02:47.305Z,38.20
2023-02-28T16:05:33.064Z,28.90
2023-02-28T16:08:02.544Z,27.42
2023-02-28T16:10:30.711Z,24.42
2023-02-28T16:12:58.240Z,28.12
2023-02-28T16:15:30.812Z,29.15
2023-02-28T16:17:58.834Z,26.70
2023-02-28T16:20:30.635Z,26.67
2023-02-28T16:22:57.767Z,33.22
2023-02-28T16:25:30.039Z,33.03
2023-02-28T16:28:01.413Z,30.25
2023-02-28T16:30:32.675Z,27.65
2023-02-28T16:33:00.074Z,30.02
2023-02-28T16:35:27.026Z,28.58
2023-02-28T16:37:54.286Z,28.27
2023-02-28T16:40:24.509Z,28.08
2023-02-28T16:42:53.839Z,27.13
2023-02-28T16:45:26.135Z,31.05
2023-02-28T16:47:53.425Z,28.60
2023-02-28T16:50:25.751Z,26.20
2023-02-28T16:52:56.052Z,30.88
2023-02-28T16:55:24.648Z,33.03
2023-02-28T16:57:54.389Z,34.92
2023-02-28T17:00:21.605Z,35.17
2023-02-28T17:02:48.626Z,44.38
2023-02-28T17:05:16.134Z,59.80
2023-02-28T17:07:43.715Z,64.07
2023-02-28T17:10:21.807Z,61.40
2023-02-28T17:12:48.721Z,68.97
2023-02-28T17:15:17.274Z,55.97
2023-02-28T17:17:44.861Z,50.92
2023-02-28T17:20:17.635Z,41.58
2023-02-28T17:22:44.657Z,42.10
2023-02-28T17:25:12.200Z,37.88
2023-02-28T17:27:39.283Z,36.17
2023-02-28T17:30:18.148Z,30.85
2023-02-28T17:32:45.092Z,30.67
2023-02-28T17:35:12.343Z,32.53
2023-02-28T17:37:39.375Z,42.47
2023-02-28T17:40:06.999Z,41.72
2023-02-28T17:42:33.834Z,40.17
2023-02-28T17:47:27.380Z,43.28
2023-02-28T17:49:54.294Z,39.03
2023-02-28T17:52:23.143Z,42.15
2023-02-28T17:54:50.076Z,39.22
2023-02-28T17:57:17.604Z,37.20
2023-02-28T17:59:45.041Z,50.22
2023-02-28T18:02:14.091Z,42.25
2023-02-28T18:04:41.236Z,36.58
2023-02-28T18:07:10.985Z,26.75
2023-02-28T18:09:37.834Z,28.17
2023-02-28T18:14:31.488Z,42.83
2023-02-28T18:16:58.418Z,45.50
2023-02-28T18:19:25.474Z,44.13
2023-02-28T18:21:53.788Z,35.70
2023-02-28T18:24:22.796Z,36.42
2023-02-28T18:26:49.766Z,31.25
2023-02-28T18:29:19.803Z,29.37
2023-02-28T18:31:48.863Z,36.03
2023-02-28T18:34:16.042Z,32.65
2023-02-28T18:36:42.927Z,33.22
2023-02-28T18:39:12.224Z,31.80
2023-02-28T18:41:39.878Z,31.60
2023-02-28T18:44:18.749Z,35.72
2023-02-28T18:46:46.758Z,29.58
2023-02-28T18:49:13.850Z,27.67
2023-02-28T18:51:45.321Z,33.88
2023-02-28T18:54:13.764Z,24.37
2023-02-28T18:56:40.746Z,26.23
2023-02-28T18:59:07.822Z,20.05
2023-02-28T19:01:34.762Z,25.80
2023-02-28T19:04:03.671Z,22.15
2023-02-28T19:06:31.672Z,23.62
2023-02-28T19:09:01.182Z,29.12
2023-02-28T19:11:28.768Z,25.37
2023-02-28T19:13:56.007Z,28.73
2023-02-28T19:16:23.216Z,34.15
2023-02-28T19:18:50.351Z,32.63
2023-02-28T19:21:19.106Z,35.60
2023-02-28T19:23:46.013Z,31.87
2023-02-28T19:26:15.897Z,30.02
2023-02-28T19:28:43.261Z,26.83
2023-02-28T19:31:30.520Z,28.87
2023-02-28T19:33:58.965Z,24.27
2023-02-28T19:36:26.139Z,24.20
2023-02-28T19:38:53.821Z,25.67
2023-02-28T19:41:21.594Z,27.30
2023-02-28T19:43:48.481Z,24.27
2023-02-28T19:46:15.429Z,23.12
2023-02-28T19:48:44.953Z,21.35
2023-02-28T19:51:13.996Z,20.92
2023-02-28T19:53:42.396Z,18.83
2023-02-28T19:56:09.957Z,22.42
2023-02-28T19:58:37.111Z,21.83
2023-02-28T20:01:11.997Z,20.08
2023-02-28T20:03:38.985Z,21.17
2023-02-28T20:06:09.869Z,20.52
2023-02-28T20:08:38.071Z,21.52
2023-02-28T20:11:10.244Z,21.35
2023-02-28T20:13:37.824Z,22.87
2023-02-28T20:16:07.148Z,21.77
2023-02-28T20:18:34.689Z,19.33
2023-02-28T20:21:02.075Z,20.20
2023-02-28T20:23:29.560Z,19.85
2023-02-28T20:26:02.327Z,19.45
2023-02-28T20:28:29.436Z,19.87
2023-02-28T20:30:56.850Z,22.10
2023-02-28T20:33:24.276Z,20.45
2023-02-28T20:35:52.972Z,21.90
2023-02-28T20:38:20.423Z,20.67
2023-02-28T20:40:47.356Z,23.73
2023-02-28T20:43:14.201Z,21.02
2023-02-28T20:48:07.814Z,21.15
2023-02-28T20:50:34.695Z,24.75
2023-02-28T20:53:01.565Z,21.95
2023-02-28T20:55:28.466Z,20.48
2023-02-28T20:57:55.380Z,21.65
2023-02-28T21:00:22.799Z,23.62
2023-02-28T21:02:49.822Z,23.25
2023-02-28T21:05:17.976Z,25.20
2023-02-28T21:07:44.833Z,21.85
2023-02-28T21:12:38.734Z,21.80
2023-02-28T21:17:32.502Z,20.80
2023-02-28T21:19:59.369Z,27.60
2023-02-28T21:22:26.277Z,22.60
2023-02-28T21:24:53.153Z,23.00
2023-02-28T21:27:20.109Z,23.48
2023-02-28T21:29:47.005Z,23.52
2023-02-28T21:32:14.923Z,21.90
2023-02-28T21:34:41.864Z,22.23
2023-02-28T21:37:08.743Z,24.00
2023-02-28T21:39:35.958Z,27.15
2023-02-28T21:42:04.281Z,27.75
2023-02-28T21:44:32.054Z,28.30
2023-02-28T21:47:02.408Z,32.97
2023-02-28T21:49:29.804Z,30.23
2023-02-28T21:51:57.237Z,28.62
2023-02-28T21:54:24.230Z,28.10
2023-02-28T21:56:51.446Z,30.77
2023-02-28T21:59:18.943Z,27.62
2023-02-28T22:01:46.227Z,30.98
2023-02-28T22:04:21.421Z,26.00
2023-02-28T22:06:53.800Z,28.38
2023-02-28T22:09:21.129Z,27.40
2023-02-28T22:11:48.270Z,27.02
2023-02-28T22:14:15.386Z,25.05
2023-02-28T22:16:57.810Z,26.83
2023-02-28T22:19:25.490Z,30.17
2023-02-28T22:21:54.060Z,29.45
2023-02-28T22:24:24.540Z,30.10
2023-02-28T22:26:53.117Z,28.30
2023-02-28T22:29:20.030Z,28.12
2023-02-28T22:34:13.785Z,30.48
2023-02-28T22:39:08.272Z,33.85
2023-02-28T22:41:35.171Z,31.35
2023-02-28T22:44:03.643Z,32.53
2023-02-28T22:46:32.572Z,30.45
2023-02-28T22:49:01.301Z,30.12
2023-02-28T22:51:29.183Z,28.95
2023-02-28T22:53:56.810Z,31.35
2023-02-28T22:56:25.033Z,28.33
2023-02-28T22:58:59.720Z,31.65
2023-02-28T23:01:29.111Z,27.37
2023-02-28T23:03:56.175Z,29.63
2023-02-28T23:06:35.026Z,28.25
2023-02-28T23:09:05.171Z,29.35
2023-02-28T23:11:39.863Z,32.55
2023-02-28T23:14:07.151Z,26.92
2023-02-28T23:17:00.035Z,30.65
2023-02-28T23:19:31.793Z,31.55
2023-02-28T23:21:59.838Z,49.80
2023-02-28T23:24:29.810Z,48.75
2023-02-28T23:26:59.720Z,33.25
2023-02-28T23:29:27.808Z,32.95
2023-02-28T23:31:55.205Z,32.95
2023-02-28T23:34:30.615Z,30.42
2023-02-28T23:36:59.833Z,31.58
2023-02-28T23:39:27.899Z,34.47
2023-02-28T23:41:55.556Z,36.03
2023-02-28T23:44:22.732Z,36.05
2023-02-28T23:46:52.268Z,31.73
2023-02-28T23:49:20.182Z,30.83
2023-02-28T23:51:49.532Z,29.30
2023-02-28T23:54:17.667Z,27.00
2023-02-28T23:56:44.916Z,27.92
2023-02-28T23:59:12.093Z,26.75
